sensor_id;sensor_type;location;lat;lon;timestamp;P1;durP1;ratioP1;P2;durP2;ratioP2
9761;SDS011;4920;49.594;11.022;2022-10-03T00:01:54;38.13;;;19.10;;
9761;SDS011;4920;49.594;11.022;2022-10-03T00:04:47;39.13;;;18.90;;
9761;SDS011;4920;49.594;11.022;2022-10-03T00:07:31;32.87;;;18.10;;
9761;SDS011;4920;49.594;11.022;2022-10-03T00:10:11;32.50;;;18.97;;
9761;SDS011;4920;49.594;11.022;2022-10-03T00:12:55;36.77;;;19.10;;
9761;SDS011;4920;49.594;11.022;2022-10-03T00:15:41;37.10;;;19.40;;
9761;SDS011;4920;49.594;11.022;2022-10-03T00:18:20;41.07;;;20.13;;
9761;SDS011;4920;49.594;11.022;2022-10-03T00:21:03;35.57;;;19.67;;
9761;SDS011;4920;49.594;11.022;2022-10-03T00:23:43;38.97;;;19.63;;
9761;SDS011;4920;49.594;11.022;2022-10-03T00:26:22;36.60;;;18.53;;
9761;SDS011;4920;49.594;11.022;2022-10-03T00:29:12;31.87;;;16.07;;
9761;SDS011;4920;49.594;11.022;2022-10-03T00:32:05;27.03;;;15.67;;
9761;SDS011;4920;49.594;11.022;2022-10-03T00:34:47;29.67;;;15.17;;
9761;SDS011;4920;49.594;11.022;2022-10-03T00:37:29;26.93;;;14.70;;
9761;SDS011;4920;49.594;11.022;2022-10-03T00:43:26;22.87;;;12.93;;
9761;SDS011;4920;49.594;11.022;2022-10-03T00:46:23;23.77;;;12.50;;
9761;SDS011;4920;49.594;11.022;2022-10-03T00:52:27;25.30;;;12.03;;
9761;SDS011;4920;49.594;11.022;2022-10-03T00:55:13;22.03;;;12.00;;
9761;SDS011;4920;49.594;11.022;2022-10-03T00:57:53;30.23;;;12.77;;
9761;SDS011;4920;49.594;11.022;2022-10-03T01:00:31;27.63;;;12.43;;
9761;SDS011;4920;49.594;11.022;2022-10-03T01:06:06;21.10;;;11.33;;
9761;SDS011;4920;49.594;11.022;2022-10-03T01:09:10;25.27;;;11.93;;
9761;SDS011;4920;49.594;11.022;2022-10-03T01:12:04;25.17;;;12.10;;
9761;SDS011;4920;49.594;11.022;2022-10-03T01:14:55;27.13;;;11.60;;
9761;SDS011;4920;49.594;11.022;2022-10-03T01:17:41;27.43;;;12.70;;
9761;SDS011;4920;49.594;11.022;2022-10-03T01:20:23;30.07;;;12.60;;
9761;SDS011;4920;49.594;11.022;2022-10-03T01:25:50;30.03;;;13.03;;
9761;SDS011;4920;49.594;11.022;2022-10-03T01:28:32;29.53;;;12.63;;
9761;SDS011;4920;49.594;11.022;2022-10-03T01:31:28;22.33;;;12.23;;
9761;SDS011;4920;49.594;11.022;2022-10-03T01:34:03;24.80;;;11.33;;
9761;SDS011;4920;49.594;11.022;2022-10-03T01:36:38;24.33;;;11.80;;
9761;SDS011;4920;49.594;11.022;2022-10-03T01:39:18;24.20;;;12.17;;
9761;SDS011;4920;49.594;11.022;2022-10-03T01:41:56;23.47;;;12.10;;
9761;SDS011;4920;49.594;11.022;2022-10-03T01:44:30;27.47;;;12.47;;
9761;SDS011;4920;49.594;11.022;2022-10-03T01:47:13;25.27;;;13.03;;
9761;SDS011;4920;49.594;11.022;2022-10-03T01:49:50;31.50;;;12.93;;
9761;SDS011;4920;49.594;11.022;2022-10-03T01:52:24;24.97;;;12.80;;
9761;SDS011;4920;49.594;11.022;2022-10-03T01:55:04;32.10;;;13.53;;
9761;SDS011;4920;49.594;11.022;2022-10-03T01:57:43;35.43;;;14.67;;
9761;SDS011;4920;49.594;11.022;2022-10-03T02:00:18;36.93;;;16.13;;
9761;SDS011;4920;49.594;11.022;2022-10-03T02:02:54;39.07;;;16.10;;
9761;SDS011;4920;49.594;11.022;2022-10-03T02:05:35;30.60;;;12.53;;
9761;SDS011;4920;49.594;11.022;2022-10-03T02:08:09;29.10;;;13.23;;
9761;SDS011;4920;49.594;11.022;2022-10-03T02:10:55;27.37;;;13.00;;
9761;SDS011;4920;49.594;11.022;2022-10-03T02:13:30;24.30;;;11.80;;
9761;SDS011;4920;49.594;11.022;2022-10-03T02:16:13;25.50;;;12.00;;
9761;SDS011;4920;49.594;11.022;2022-10-03T02:18:56;28.50;;;12.50;;
9761;SDS011;4920;49.594;11.022;2022-10-03T02:21:30;26.50;;;11.63;;
9761;SDS011;4920;49.594;11.022;2022-10-03T02:24:06;31.13;;;13.47;;
9761;SDS011;4920;49.594;11.022;2022-10-03T02:26:55;30.77;;;14.47;;
9761;SDS011;4920;49.594;11.022;2022-10-03T02:29:57;32.80;;;14.10;;
9761;SDS011;4920;49.594;11.022;2022-10-03T02:32:56;35.63;;;15.23;;
9761;SDS011;4920;49.594;11.022;2022-10-03T02:39:04;36.93;;;15.73;;
9761;SDS011;4920;49.594;11.022;2022-10-03T02:41:56;37.73;;;15.27;;
9761;SDS011;4920;49.594;11.022;2022-10-03T02:44:57;36.63;;;14.93;;
9761;SDS011;4920;49.594;11.022;2022-10-03T02:48:05;38.20;;;14.87;;
9761;SDS011;4920;49.594;11.022;2022-10-03T02:51:07;41.17;;;14.43;;
9761;SDS011;4920;49.594;11.022;2022-10-03T02:53:56;36.07;;;15.23;;
9761;SDS011;4920;49.594;11.022;2022-10-03T02:56:58;47.20;;;17.20;;
9761;SDS011;4920;49.594;11.022;2022-10-03T02:59:55;45.23;;;17.03;;
9761;SDS011;4920;49.594;11.022;2022-10-03T03:02:53;45.40;;;17.53;;
9761;SDS011;4920;49.594;11.022;2022-10-03T03:18:17;33.37;;;14.97;;
9761;SDS011;4920;49.594;11.022;2022-10-03T03:21:07;34.70;;;14.80;;
9761;SDS011;4920;49.594;11.022;2022-10-03T03:26:53;36.13;;;14.70;;
9761;SDS011;4920;49.594;11.022;2022-10-03T03:29:33;32.87;;;14.17;;
9761;SDS011;4920;49.594;11.022;2022-10-03T03:32:11;30.80;;;14.67;;
9761;SDS011;4920;49.594;11.022;2022-10-03T03:34:50;32.53;;;14.07;;
9761;SDS011;4920;49.594;11.022;2022-10-03T03:37:26;35.07;;;15.07;;
9761;SDS011;4920;49.594;11.022;2022-10-03T03:40:06;34.30;;;15.53;;
9761;SDS011;4920;49.594;11.022;2022-10-03T03:42:56;37.70;;;14.33;;
9761;SDS011;4920;49.594;11.022;2022-10-03T03:45:41;34.43;;;15.33;;
9761;SDS011;4920;49.594;11.022;2022-10-03T03:51:31;33.10;;;15.10;;
9761;SDS011;4920;49.594;11.022;2022-10-03T03:54:11;32.73;;;15.17;;
9761;SDS011;4920;49.594;11.022;2022-10-03T03:57:07;33.67;;;14.50;;
9761;SDS011;4920;49.594;11.022;2022-10-03T03:59:55;27.33;;;13.40;;
9761;SDS011;4920;49.594;11.022;2022-10-03T04:02:46;32.63;;;14.77;;
9761;SDS011;4920;49.594;11.022;2022-10-03T04:05:26;32.07;;;13.87;;
9761;SDS011;4920;49.594;11.022;2022-10-03T04:08:16;40.73;;;16.47;;
9761;SDS011;4920;49.594;11.022;2022-10-03T04:11:00;43.70;;;17.37;;
9761;SDS011;4920;49.594;11.022;2022-10-03T04:13:46;43.73;;;17.87;;
9761;SDS011;4920;49.594;11.022;2022-10-03T04:16:43;40.93;;;18.07;;
9761;SDS011;4920;49.594;11.022;2022-10-03T04:19:47;39.80;;;17.50;;
9761;SDS011;4920;49.594;11.022;2022-10-03T04:22:35;37.23;;;16.80;;
9761;SDS011;4920;49.594;11.022;2022-10-03T04:25:18;37.60;;;17.37;;
9761;SDS011;4920;49.594;11.022;2022-10-03T04:31:20;34.03;;;15.47;;
9761;SDS011;4920;49.594;11.022;2022-10-03T04:34:07;39.83;;;16.37;;
9761;SDS011;4920;49.594;11.022;2022-10-03T04:37:00;41.00;;;16.33;;
9761;SDS011;4920;49.594;11.022;2022-10-03T04:39:52;42.07;;;17.17;;
9761;SDS011;4920;49.594;11.022;2022-10-03T04:42:35;37.10;;;16.17;;
9761;SDS011;4920;49.594;11.022;2022-10-03T04:45:16;35.60;;;16.20;;
9761;SDS011;4920;49.594;11.022;2022-10-03T04:48:04;34.83;;;16.40;;
9761;SDS011;4920;49.594;11.022;2022-10-03T04:50:46;37.47;;;16.30;;
9761;SDS011;4920;49.594;11.022;2022-10-03T04:53:39;36.17;;;16.97;;
9761;SDS011;4920;49.594;11.022;2022-10-03T04:56:17;43.90;;;17.00;;
9761;SDS011;4920;49.594;11.022;2022-10-03T04:59:11;45.23;;;18.13;;
9761;SDS011;4920;49.594;11.022;2022-10-03T05:02:07;47.57;;;18.67;;
9761;SDS011;4920;49.594;11.022;2022-10-03T05:04:51;52.67;;;19.40;;
9761;SDS011;4920;49.594;11.022;2022-10-03T05:07:34;49.67;;;19.37;;
9761;SDS011;4920;49.594;11.022;2022-10-03T05:10:19;57.10;;;20.70;;
9761;SDS011;4920;49.594;11.022;2022-10-03T05:12:58;50.33;;;19.77;;
9761;SDS011;4920;49.594;11.022;2022-10-03T05:15:34;47.80;;;20.00;;
9761;SDS011;4920;49.594;11.022;2022-10-03T05:18:12;58.67;;;20.77;;
9761;SDS011;4920;49.594;11.022;2022-10-03T05:20:51;46.83;;;20.27;;
9761;SDS011;4920;49.594;11.022;2022-10-03T05:23:28;46.30;;;19.73;;
9761;SDS011;4920;49.594;11.022;2022-10-03T05:26:10;46.83;;;18.90;;
9761;SDS011;4920;49.594;11.022;2022-10-03T05:29:11;37.57;;;18.07;;
9761;SDS011;4920;49.594;11.022;2022-10-03T05:31:45;44.60;;;17.53;;
9761;SDS011;4920;49.594;11.022;2022-10-03T05:34:28;35.60;;;17.63;;
9761;SDS011;4920;49.594;11.022;2022-10-03T05:40:00;56.27;;;21.90;;
9761;SDS011;4920;49.594;11.022;2022-10-03T05:42:43;39.47;;;18.77;;
9761;SDS011;4920;49.594;11.022;2022-10-03T05:45:31;35.13;;;16.93;;
9761;SDS011;4920;49.594;11.022;2022-10-03T05:48:17;41.80;;;18.63;;
9761;SDS011;4920;49.594;11.022;2022-10-03T05:51:05;34.70;;;17.63;;
9761;SDS011;4920;49.594;11.022;2022-10-03T05:56:54;31.93;;;16.83;;
9761;SDS011;4920;49.594;11.022;2022-10-03T05:59:50;29.50;;;16.27;;
9761;SDS011;4920;49.594;11.022;2022-10-03T06:02:45;32.93;;;16.97;;
9761;SDS011;4920;49.594;11.022;2022-10-03T06:05:23;31.77;;;16.90;;
9761;SDS011;4920;49.594;11.022;2022-10-03T06:11:40;26.03;;;14.97;;
9761;SDS011;4920;49.594;11.022;2022-10-03T06:14:32;26.03;;;15.23;;
9761;SDS011;4920;49.594;11.022;2022-10-03T06:17:23;28.03;;;15.50;;
9761;SDS011;4920;49.594;11.022;2022-10-03T06:20:20;28.80;;;15.53;;
9761;SDS011;4920;49.594;11.022;2022-10-03T06:23:18;26.03;;;15.00;;
9761;SDS011;4920;49.594;11.022;2022-10-03T06:42:10;20.60;;;14.03;;
9761;SDS011;4920;49.594;11.022;2022-10-03T06:48:25;20.73;;;12.97;;
9761;SDS011;4920;49.594;11.022;2022-10-03T06:51:27;24.57;;;13.30;;
9761;SDS011;4920;49.594;11.022;2022-10-03T06:54:18;20.87;;;12.63;;
9761;SDS011;4920;49.594;11.022;2022-10-03T06:57:30;20.10;;;13.03;;
9761;SDS011;4920;49.594;11.022;2022-10-03T07:00:25;21.67;;;12.70;;
9761;SDS011;4920;49.594;11.022;2022-10-03T07:03:17;15.10;;;11.03;;
9761;SDS011;4920;49.594;11.022;2022-10-03T07:12:44;19.53;;;11.03;;
9761;SDS011;4920;49.594;11.022;2022-10-03T07:15:27;21.13;;;10.97;;
9761;SDS011;4920;49.594;11.022;2022-10-03T07:22:05;18.53;;;11.60;;
9761;SDS011;4920;49.594;11.022;2022-10-03T07:28:03;16.90;;;10.50;;
9761;SDS011;4920;49.594;11.022;2022-10-03T07:30:53;18.57;;;10.97;;
9761;SDS011;4920;49.594;11.022;2022-10-03T07:40:10;15.40;;;10.03;;
9761;SDS011;4920;49.594;11.022;2022-10-03T07:43:01;15.83;;;10.13;;
9761;SDS011;4920;49.594;11.022;2022-10-03T07:45:58;15.93;;;9.97;;
9761;SDS011;4920;49.594;11.022;2022-10-03T07:48:50;18.27;;;9.70;;
9761;SDS011;4920;49.594;11.022;2022-10-03T07:51:30;12.83;;;8.47;;
9761;SDS011;4920;49.594;11.022;2022-10-03T07:54:22;11.83;;;6.33;;
9761;SDS011;4920;49.594;11.022;2022-10-03T08:00:18;15.87;;;6.63;;
9761;SDS011;4920;49.594;11.022;2022-10-03T08:03:05;11.33;;;6.27;;
9761;SDS011;4920;49.594;11.022;2022-10-03T08:06:06;12.33;;;6.37;;
9761;SDS011;4920;49.594;11.022;2022-10-03T08:08:58;12.03;;;6.67;;
9761;SDS011;4920;49.594;11.022;2022-10-03T08:15:02;14.13;;;6.70;;
9761;SDS011;4920;49.594;11.022;2022-10-03T08:20:52;11.00;;;5.93;;
9761;SDS011;4920;49.594;11.022;2022-10-03T08:26:38;9.23;;;5.43;;
9761;SDS011;4920;49.594;11.022;2022-10-03T08:29:23;9.07;;;4.53;;
9761;SDS011;4920;49.594;11.022;2022-10-03T08:32:42;10.47;;;5.17;;
9761;SDS011;4920;49.594;11.022;2022-10-03T08:35:54;10.23;;;4.80;;
9761;SDS011;4920;49.594;11.022;2022-10-03T08:38:47;9.83;;;4.90;;
9761;SDS011;4920;49.594;11.022;2022-10-03T08:41:30;11.27;;;4.30;;
9761;SDS011;4920;49.594;11.022;2022-10-03T08:44:42;8.07;;;4.53;;
9761;SDS011;4920;49.594;11.022;2022-10-03T08:54:03;8.77;;;4.03;;
9761;SDS011;4920;49.594;11.022;2022-10-03T08:56:47;10.52;;;4.05;;
9761;SDS011;4920;49.594;11.022;2022-10-03T09:06:17;10.00;;;4.13;;
9761;SDS011;4920;49.594;11.022;2022-10-03T09:09:47;7.63;;;3.60;;
9761;SDS011;4920;49.594;11.022;2022-10-03T09:19:10;9.35;;;3.60;;
9761;SDS011;4920;49.594;11.022;2022-10-03T09:22:14;9.45;;;3.20;;
9761;SDS011;4920;49.594;11.022;2022-10-03T09:25:02;8.95;;;3.15;;
9761;SDS011;4920;49.594;11.022;2022-10-03T09:27:43;7.93;;;3.90;;
9761;SDS011;4920;49.594;11.022;2022-10-03T09:30:32;7.75;;;3.80;;
9761;SDS011;4920;49.594;11.022;2022-10-03T09:39:49;7.32;;;3.83;;
9761;SDS011;4920;49.594;11.022;2022-10-03T09:45:47;8.80;;;3.30;;
9761;SDS011;4920;49.594;11.022;2022-10-03T09:51:55;8.85;;;2.80;;
9761;SDS011;4920;49.594;11.022;2022-10-03T09:54:51;14.57;;;3.47;;
9761;SDS011;4920;49.594;11.022;2022-10-03T10:00:45;6.47;;;3.05;;
9761;SDS011;4920;49.594;11.022;2022-10-03T10:13:22;9.10;;;3.30;;
9761;SDS011;4920;49.594;11.022;2022-10-03T10:16:39;7.00;;;2.60;;
9761;SDS011;4920;49.594;11.022;2022-10-03T10:22:19;6.72;;;2.30;;
9761;SDS011;4920;49.594;11.022;2022-10-03T10:25:25;6.60;;;2.22;;
9761;SDS011;4920;49.594;11.022;2022-10-03T10:28:27;6.35;;;2.10;;
9761;SDS011;4920;49.594;11.022;2022-10-03T10:31:37;10.50;;;2.30;;
9761;SDS011;4920;49.594;11.022;2022-10-03T10:38:10;4.57;;;1.98;;
9761;SDS011;4920;49.594;11.022;2022-10-03T10:47:43;6.60;;;2.20;;
9761;SDS011;4920;49.594;11.022;2022-10-03T10:59:55;4.40;;;1.80;;
9761;SDS011;4920;49.594;11.022;2022-10-03T11:02:45;5.22;;;1.92;;
9761;SDS011;4920;49.594;11.022;2022-10-03T11:09:10;8.50;;;2.30;;
9761;SDS011;4920;49.594;11.022;2022-10-03T11:21:51;7.82;;;1.70;;
9761;SDS011;4920;49.594;11.022;2022-10-03T11:37:39;7.38;;;1.80;;
9761;SDS011;4920;49.594;11.022;2022-10-03T11:40:15;5.57;;;1.73;;
9761;SDS011;4920;49.594;11.022;2022-10-03T11:42:55;7.35;;;1.60;;
9761;SDS011;4920;49.594;11.022;2022-10-03T11:45:53;5.30;;;1.80;;
9761;SDS011;4920;49.594;11.022;2022-10-03T11:48:27;5.82;;;2.08;;
9761;SDS011;4920;49.594;11.022;2022-10-03T11:51:06;4.10;;;1.70;;
9761;SDS011;4920;49.594;11.022;2022-10-03T11:53:43;6.07;;;1.95;;
9761;SDS011;4920;49.594;11.022;2022-10-03T11:59:09;5.63;;;1.70;;
9761;SDS011;4920;49.594;11.022;2022-10-03T12:04:50;3.22;;;1.52;;
9761;SDS011;4920;49.594;11.022;2022-10-03T12:07:41;5.05;;;1.60;;
9761;SDS011;4920;49.594;11.022;2022-10-03T12:10:43;5.32;;;1.30;;
9761;SDS011;4920;49.594;11.022;2022-10-03T12:13:19;3.83;;;1.40;;
9761;SDS011;4920;49.594;11.022;2022-10-03T12:15:56;4.57;;;1.40;;
9761;SDS011;4920;49.594;11.022;2022-10-03T12:18:27;4.88;;;1.25;;
9761;SDS011;4920;49.594;11.022;2022-10-03T12:21:16;7.00;;;1.63;;
9761;SDS011;4920;49.594;11.022;2022-10-03T12:23:53;5.57;;;1.50;;
9761;SDS011;4920;49.594;11.022;2022-10-03T12:26:40;3.67;;;1.50;;
9761;SDS011;4920;49.594;11.022;2022-10-03T12:29:18;5.10;;;1.40;;
9761;SDS011;4920;49.594;11.022;2022-10-03T12:31:52;3.33;;;1.13;;
9761;SDS011;4920;49.594;11.022;2022-10-03T12:34:35;2.85;;;1.27;;
9761;SDS011;4920;49.594;11.022;2022-10-03T12:37:10;4.35;;;1.40;;
9761;SDS011;4920;49.594;11.022;2022-10-03T12:39:53;3.08;;;1.45;;
9761;SDS011;4920;49.594;11.022;2022-10-03T12:42:34;2.53;;;1.30;;
9761;SDS011;4920;49.594;11.022;2022-10-03T12:45:11;6.35;;;1.60;;
9761;SDS011;4920;49.594;11.022;2022-10-03T12:47:56;4.63;;;1.50;;
9761;SDS011;4920;49.594;11.022;2022-10-03T12:50:40;3.53;;;1.52;;
9761;SDS011;4920;49.594;11.022;2022-10-03T12:53:19;6.63;;;1.50;;
9761;SDS011;4920;49.594;11.022;2022-10-03T12:56:02;4.57;;;1.30;;
9761;SDS011;4920;49.594;11.022;2022-10-03T12:58:48;6.85;;;1.63;;
9761;SDS011;4920;49.594;11.022;2022-10-03T13:01:26;4.85;;;1.60;;
9761;SDS011;4920;49.594;11.022;2022-10-03T13:04:07;4.18;;;1.45;;
9761;SDS011;4920;49.594;11.022;2022-10-03T13:06:50;2.53;;;1.45;;
9761;SDS011;4920;49.594;11.022;2022-10-03T13:09:39;4.82;;;1.70;;
9761;SDS011;4920;49.594;11.022;2022-10-03T13:12:25;4.90;;;1.42;;
9761;SDS011;4920;49.594;11.022;2022-10-03T13:18:11;6.38;;;2.78;;
9761;SDS011;4920;49.594;11.022;2022-10-03T13:20:57;5.15;;;1.90;;
9761;SDS011;4920;49.594;11.022;2022-10-03T13:23:55;3.53;;;1.60;;
9761;SDS011;4920;49.594;11.022;2022-10-03T13:26:34;3.85;;;1.60;;
9761;SDS011;4920;49.594;11.022;2022-10-03T13:29:24;3.65;;;1.58;;
9761;SDS011;4920;49.594;11.022;2022-10-03T13:32:03;3.38;;;1.67;;
9761;SDS011;4920;49.594;11.022;2022-10-03T13:37:57;3.90;;;1.50;;
9761;SDS011;4920;49.594;11.022;2022-10-03T13:40:38;4.53;;;1.30;;
9761;SDS011;4920;49.594;11.022;2022-10-03T13:43:12;3.58;;;1.40;;
9761;SDS011;4920;49.594;11.022;2022-10-03T13:45:46;6.07;;;1.50;;
9761;SDS011;4920;49.594;11.022;2022-10-03T13:48:21;2.92;;;1.33;;
9761;SDS011;4920;49.594;11.022;2022-10-03T13:50:56;4.93;;;1.45;;
9761;SDS011;4920;49.594;11.022;2022-10-03T13:53:39;3.60;;;1.40;;
9761;SDS011;4920;49.594;11.022;2022-10-03T13:56:41;4.72;;;1.35;;
9761;SDS011;4920;49.594;11.022;2022-10-03T13:59:20;7.32;;;1.60;;
9761;SDS011;4920;49.594;11.022;2022-10-03T14:02:04;5.38;;;1.60;;
9761;SDS011;4920;49.594;11.022;2022-10-03T14:04:50;5.35;;;1.50;;
9761;SDS011;4920;49.594;11.022;2022-10-03T14:07:37;5.90;;;1.50;;
9761;SDS011;4920;49.594;11.022;2022-10-03T14:10:43;3.10;;;1.40;;
9761;SDS011;4920;49.594;11.022;2022-10-03T14:13:29;6.80;;;1.70;;
9761;SDS011;4920;49.594;11.022;2022-10-03T14:16:07;6.97;;;1.55;;
9761;SDS011;4920;49.594;11.022;2022-10-03T14:18:45;4.07;;;1.00;;
9761;SDS011;4920;49.594;11.022;2022-10-03T14:21:26;5.35;;;1.70;;
9761;SDS011;4920;49.594;11.022;2022-10-03T14:24:15;6.57;;;2.55;;
9761;SDS011;4920;49.594;11.022;2022-10-03T14:27:03;5.43;;;2.45;;
9761;SDS011;4920;49.594;11.022;2022-10-03T14:29:43;13.73;;;8.38;;
9761;SDS011;4920;49.594;11.022;2022-10-03T14:32:22;5.70;;;1.85;;
9761;SDS011;4920;49.594;11.022;2022-10-03T14:35:17;12.05;;;4.97;;
9761;SDS011;4920;49.594;11.022;2022-10-03T14:38:07;6.22;;;4.43;;
9761;SDS011;4920;49.594;11.022;2022-10-03T14:40:50;7.70;;;3.88;;
9761;SDS011;4920;49.594;11.022;2022-10-03T14:43:34;3.72;;;1.73;;
9761;SDS011;4920;49.594;11.022;2022-10-03T14:46:11;2.92;;;1.85;;
9761;SDS011;4920;49.594;11.022;2022-10-03T14:48:42;9.18;;;7.30;;
9761;SDS011;4920;49.594;11.022;2022-10-03T14:51:17;5.80;;;1.50;;
9761;SDS011;4920;49.594;11.022;2022-10-03T14:53:50;4.72;;;1.77;;
9761;SDS011;4920;49.594;11.022;2022-10-03T14:56:24;4.00;;;1.80;;
9761;SDS011;4920;49.594;11.022;2022-10-03T14:58:53;5.57;;;2.65;;
9761;SDS011;4920;49.594;11.022;2022-10-03T15:01:28;4.78;;;1.48;;
9761;SDS011;4920;49.594;11.022;2022-10-03T15:03:59;4.78;;;2.03;;
9761;SDS011;4920;49.594;11.022;2022-10-03T15:06:31;5.32;;;1.58;;
9761;SDS011;4920;49.594;11.022;2022-10-03T15:09:07;7.50;;;1.50;;
9761;SDS011;4920;49.594;11.022;2022-10-03T15:11:46;4.80;;;1.40;;
9761;SDS011;4920;49.594;11.022;2022-10-03T15:14:29;5.28;;;1.55;;
9761;SDS011;4920;49.594;11.022;2022-10-03T15:17:03;5.68;;;2.30;;
9761;SDS011;4920;49.594;11.022;2022-10-03T15:19:35;5.20;;;1.50;;
9761;SDS011;4920;49.594;11.022;2022-10-03T15:22:19;3.73;;;1.60;;
9761;SDS011;4920;49.594;11.022;2022-10-03T15:24:56;5.97;;;1.70;;
9761;SDS011;4920;49.594;11.022;2022-10-03T15:27:29;5.15;;;1.58;;
9761;SDS011;4920;49.594;11.022;2022-10-03T15:30:06;4.32;;;2.38;;
9761;SDS011;4920;49.594;11.022;2022-10-03T15:32:46;6.13;;;3.00;;
9761;SDS011;4920;49.594;11.022;2022-10-03T15:35:17;4.10;;;1.92;;
9761;SDS011;4920;49.594;11.022;2022-10-03T15:37:48;7.10;;;4.30;;
9761;SDS011;4920;49.594;11.022;2022-10-03T15:40:19;4.97;;;2.45;;
9761;SDS011;4920;49.594;11.022;2022-10-03T15:43:00;5.83;;;1.30;;
9761;SDS011;4920;49.594;11.022;2022-10-03T15:45:33;5.07;;;1.60;;
9761;SDS011;4920;49.594;11.022;2022-10-03T15:48:04;3.30;;;1.40;;
9761;SDS011;4920;49.594;11.022;2022-10-03T15:50:55;4.70;;;2.13;;
9761;SDS011;4920;49.594;11.022;2022-10-03T15:56:18;4.20;;;1.97;;
9761;SDS011;4920;49.594;11.022;2022-10-03T15:58:53;7.37;;;2.10;;
9761;SDS011;4920;49.594;11.022;2022-10-03T16:01:27;18.60;;;7.67;;
9761;SDS011;4920;49.594;11.022;2022-10-03T16:03:59;23.47;;;9.87;;
9761;SDS011;4920;49.594;11.022;2022-10-03T16:06:32;33.10;;;14.93;;
9761;SDS011;4920;49.594;11.022;2022-10-03T16:09:14;18.13;;;8.30;;
9761;SDS011;4920;49.594;11.022;2022-10-03T16:11:55;16.73;;;8.17;;
9761;SDS011;4920;49.594;11.022;2022-10-03T16:14:40;14.13;;;5.90;;
9761;SDS011;4920;49.594;11.022;2022-10-03T16:17:14;13.90;;;5.83;;
9761;SDS011;4920;49.594;11.022;2022-10-03T16:19:49;18.07;;;8.53;;
9761;SDS011;4920;49.594;11.022;2022-10-03T16:22:23;6.70;;;2.83;;
9761;SDS011;4920;49.594;11.022;2022-10-03T16:25:06;7.07;;;4.33;;
9761;SDS011;4920;49.594;11.022;2022-10-03T16:27:44;14.90;;;7.20;;
9761;SDS011;4920;49.594;11.022;2022-10-03T16:30:21;7.17;;;2.43;;
9761;SDS011;4920;49.594;11.022;2022-10-03T16:32:53;12.20;;;6.57;;
9761;SDS011;4920;49.594;11.022;2022-10-03T16:35:32;23.70;;;12.17;;
9761;SDS011;4920;49.594;11.022;2022-10-03T16:38:05;21.77;;;13.30;;
9761;SDS011;4920;49.594;11.022;2022-10-03T16:40:48;9.77;;;3.60;;
9761;SDS011;4920;49.594;11.022;2022-10-03T16:43:23;25.90;;;15.20;;
9761;SDS011;4920;49.594;11.022;2022-10-03T16:45:54;6.33;;;3.53;;
9761;SDS011;4920;49.594;11.022;2022-10-03T16:48:27;8.20;;;3.50;;
9761;SDS011;4920;49.594;11.022;2022-10-03T16:51:16;6.73;;;3.73;;
9761;SDS011;4920;49.594;11.022;2022-10-03T16:53:47;8.07;;;3.93;;
9761;SDS011;4920;49.594;11.022;2022-10-03T16:56:20;8.73;;;4.23;;
9761;SDS011;4920;49.594;11.022;2022-10-03T16:58:51;19.30;;;9.53;;
9761;SDS011;4920;49.594;11.022;2022-10-03T17:01:28;10.80;;;6.23;;
9761;SDS011;4920;49.594;11.022;2022-10-03T17:04:06;11.33;;;7.03;;
9761;SDS011;4920;49.594;11.022;2022-10-03T17:06:43;5.87;;;3.53;;
9761;SDS011;4920;49.594;11.022;2022-10-03T17:09:16;7.83;;;3.80;;
9761;SDS011;4920;49.594;11.022;2022-10-03T17:11:51;5.60;;;3.20;;
9761;SDS011;4920;49.594;11.022;2022-10-03T17:14:23;7.57;;;3.30;;
9761;SDS011;4920;49.594;11.022;2022-10-03T17:16:57;6.13;;;3.17;;
9761;SDS011;4920;49.594;11.022;2022-10-03T17:19:31;9.17;;;3.37;;
9761;SDS011;4920;49.594;11.022;2022-10-03T17:22:05;6.57;;;3.07;;
9761;SDS011;4920;49.594;11.022;2022-10-03T17:24:44;9.97;;;3.40;;
9761;SDS011;4920;49.594;11.022;2022-10-03T17:27:21;5.40;;;2.90;;
9761;SDS011;4920;49.594;11.022;2022-10-03T17:29:55;7.10;;;2.70;;
9761;SDS011;4920;49.594;11.022;2022-10-03T17:32:32;6.93;;;2.47;;
9761;SDS011;4920;49.594;11.022;2022-10-03T17:35:06;5.60;;;2.60;;
9761;SDS011;4920;49.594;11.022;2022-10-03T17:41:12;7.80;;;3.10;;
9761;SDS011;4920;49.594;11.022;2022-10-03T17:43:47;8.53;;;3.10;;
9761;SDS011;4920;49.594;11.022;2022-10-03T17:46:28;6.80;;;2.83;;
9761;SDS011;4920;49.594;11.022;2022-10-03T17:49:06;5.63;;;3.20;;
9761;SDS011;4920;49.594;11.022;2022-10-03T17:51:48;10.40;;;5.63;;
9761;SDS011;4920;49.594;11.022;2022-10-03T17:54:19;6.67;;;3.53;;
9761;SDS011;4920;49.594;11.022;2022-10-03T17:56:52;13.83;;;10.20;;
9761;SDS011;4920;49.594;11.022;2022-10-03T17:59:29;28.87;;;18.63;;
9761;SDS011;4920;49.594;11.022;2022-10-03T18:02:04;17.37;;;9.97;;
9761;SDS011;4920;49.594;11.022;2022-10-03T18:04:43;12.13;;;6.57;;
9761;SDS011;4920;49.594;11.022;2022-10-03T18:07:20;19.13;;;11.93;;
9761;SDS011;4920;49.594;11.022;2022-10-03T18:09:52;13.43;;;9.33;;
9761;SDS011;4920;49.594;11.022;2022-10-03T18:12:22;15.40;;;8.53;;
9761;SDS011;4920;49.594;11.022;2022-10-03T18:15:14;12.63;;;8.20;;
9761;SDS011;4920;49.594;11.022;2022-10-03T18:18:15;11.70;;;6.97;;
9761;SDS011;4920;49.594;11.022;2022-10-03T18:21:02;10.97;;;5.63;;
9761;SDS011;4920;49.594;11.022;2022-10-03T18:23:37;8.20;;;4.70;;
9761;SDS011;4920;49.594;11.022;2022-10-03T18:26:22;8.30;;;4.57;;
9761;SDS011;4920;49.594;11.022;2022-10-03T18:28:59;10.20;;;5.57;;
9761;SDS011;4920;49.594;11.022;2022-10-03T18:31:43;14.20;;;6.90;;
9761;SDS011;4920;49.594;11.022;2022-10-03T18:34:16;15.77;;;8.80;;
9761;SDS011;4920;49.594;11.022;2022-10-03T18:36:48;13.87;;;6.77;;
9761;SDS011;4920;49.594;11.022;2022-10-03T18:39:19;9.33;;;5.57;;
9761;SDS011;4920;49.594;11.022;2022-10-03T18:41:53;10.70;;;4.97;;
9761;SDS011;4920;49.594;11.022;2022-10-03T18:44:25;11.03;;;5.33;;
9761;SDS011;4920;49.594;11.022;2022-10-03T18:46:59;11.97;;;5.07;;
9761;SDS011;4920;49.594;11.022;2022-10-03T18:49:34;10.57;;;5.03;;
9761;SDS011;4920;49.594;11.022;2022-10-03T18:52:08;11.70;;;5.30;;
9761;SDS011;4920;49.594;11.022;2022-10-03T18:54:45;10.57;;;5.37;;
9761;SDS011;4920;49.594;11.022;2022-10-03T18:57:22;11.57;;;7.50;;
9761;SDS011;4920;49.594;11.022;2022-10-03T18:59:57;11.83;;;6.70;;
9761;SDS011;4920;49.594;11.022;2022-10-03T19:02:32;13.87;;;7.83;;
9761;SDS011;4920;49.594;11.022;2022-10-03T19:05:06;17.20;;;10.00;;
9761;SDS011;4920;49.594;11.022;2022-10-03T19:07:44;14.23;;;7.30;;
9761;SDS011;4920;49.594;11.022;2022-10-03T19:10:28;15.97;;;9.90;;
9761;SDS011;4920;49.594;11.022;2022-10-03T19:13:10;12.60;;;6.87;;
9761;SDS011;4920;49.594;11.022;2022-10-03T19:15:54;14.97;;;7.60;;
9761;SDS011;4920;49.594;11.022;2022-10-03T19:18:41;12.80;;;6.47;;
9761;SDS011;4920;49.594;11.022;2022-10-03T19:21:14;13.60;;;6.03;;
9761;SDS011;4920;49.594;11.022;2022-10-03T19:23:49;13.40;;;6.07;;
9761;SDS011;4920;49.594;11.022;2022-10-03T19:26:22;12.70;;;6.90;;
9761;SDS011;4920;49.594;11.022;2022-10-03T19:29:02;15.70;;;6.97;;
9761;SDS011;4920;49.594;11.022;2022-10-03T19:31:35;11.77;;;7.20;;
9761;SDS011;4920;49.594;11.022;2022-10-03T19:34:11;15.93;;;6.77;;
9761;SDS011;4920;49.594;11.022;2022-10-03T19:36:44;11.07;;;6.50;;
9761;SDS011;4920;49.594;11.022;2022-10-03T19:39:18;13.43;;;6.60;;
9761;SDS011;4920;49.594;11.022;2022-10-03T19:41:50;10.77;;;6.40;;
9761;SDS011;4920;49.594;11.022;2022-10-03T19:44:21;15.17;;;7.97;;
9761;SDS011;4920;49.594;11.022;2022-10-03T19:46:54;13.33;;;7.37;;
9761;SDS011;4920;49.594;11.022;2022-10-03T19:49:34;12.83;;;7.10;;
9761;SDS011;4920;49.594;11.022;2022-10-03T19:52:14;16.27;;;7.07;;
9761;SDS011;4920;49.594;11.022;2022-10-03T19:54:49;12.43;;;5.80;;
9761;SDS011;4920;49.594;11.022;2022-10-03T19:57:21;12.60;;;6.20;;